Time;durP1;ratioP1;P1;durP2;ratioP2;P2;SDS_P1;SDS_P2;PMS_P1;PMS_P2;Temp;Humidity;BMP_temperature;BMP_pressure;BME280_temperature;BME280_humidity;BME280_pressure;Samples;Min_cycle;Max_cycle;Signal;HPM_P1;HPM_P2
2023/09/27 00:02:13;;;;;;;1.00;0.50;;;;;;;-143.84;80.08;45129.03;5091566;28;20444;-58
2023/09/27 00:04:40;;;;;;;1.00;0.80;;;;;;;-143.84;79.60;45092.88;5091577;28;20501;-58
2023/09/27 00:07:07;;;;;;;0.90;0.63;;;;;;;-143.84;79.26;45111.91;5091529;28;20488;-58
2023/09/27 00:09:36;;;;;;;1.07;0.83;;;;;;;-143.84;79.20;45079.53;5091447;28;20534;-58
2023/09/27 00:12:05;;;;;;;1.27;0.90;;;;;;;-143.84;79.24;45111.91;5091454;28;20979;-58
2023/09/27 00:14:33;;;;;;;0.93;0.83;;;;;;;-143.84;78.94;45110.00;5091338;28;20446;-58
2023/09/27 00:17:00;;;;;;;0.90;0.50;;;;;;;-143.84;79.09;45127.13;5091126;28;21220;-58
2023/09/27 00:19:27;;;;;;;2.00;0.90;;;;;;;-143.84;79.05;45096.66;5089783;28;20479;-58
2023/09/27 00:21:54;;;;;;;1.20;0.90;;;;;;;-143.84;79.21;45087.16;5091216;28;20440;-58
2023/09/27 00:24:21;;;;;;;1.00;0.80;;;;;;;-143.84;79.49;45098.56;5091415;28;21013;-58
2023/09/27 00:26:50;;;;;;;1.17;0.77;;;;;;;-143.84;79.64;45104.28;5091016;28;20472;-58
2023/09/27 00:29:17;;;;;;;0.90;0.40;;;;;;;-143.84;79.43;45111.91;5091206;28;20444;-58
2023/09/27 00:31:44;;;;;;;1.30;0.73;;;;;;;-143.84;79.71;45100.47;5090838;28;20986;-58
2023/09/27 00:34:11;;;;;;;1.10;0.90;;;;;;;-143.84;79.68;45083.34;5091238;28;20843;-58
2023/09/27 00:36:38;;;;;;;1.00;0.70;;;;;;;-143.84;79.84;45094.78;5090886;28;20436;-58
2023/09/27 00:39:05;;;;;;;1.43;1.00;;;;;;;-143.84;79.71;45110.00;5090511;28;20509;-58
2023/09/27 00:41:32;;;;;;;0.80;0.50;;;;;;;-143.84;79.76;45119.53;5090671;28;20436;-58
2023/09/27 00:44:01;;;;;;;0.80;0.40;;;;;;;-143.84;79.81;45113.81;5090655;28;20443;-58
2023/09/27 00:46:28;;;;;;;1.30;1.00;;;;;;;-143.84;79.97;45106.19;5090702;28;20548;-58
2023/09/27 00:48:56;;;;;;;0.90;0.60;;;;;;;-143.84;80.28;45098.56;5090555;28;21284;-58
2023/09/27 00:51:23;;;;;;;1.00;0.73;;;;;;;-143.84;80.47;45132.84;5090640;28;20505;-58
2023/09/27 00:53:50;;;;;;;0.90;0.60;;;;;;;-143.84;80.60;45110.00;5090891;28;20466;-58
2023/09/27 00:56:18;;;;;;;0.90;0.73;;;;;;;-143.84;81.01;45087.16;5090583;28;20806;-58
2023/09/27 00:58:45;;;;;;;0.90;0.70;;;;;;;-143.84;80.96;45123.34;5090482;28;20444;-58
2023/09/27 01:01:15;;;;;;;1.53;0.80;;;;;;;-143.84;81.12;45136.66;5090595;28;20436;-58
2023/09/27 01:03:42;;;;;;;1.93;1.23;;;;;;;-143.84;81.24;45102.38;5090625;28;20454;-58
2023/09/27 01:06:09;;;;;;;0.90;0.60;;;;;;;-143.84;81.53;45100.47;5090507;28;20927;-58
2023/09/27 01:08:36;;;;;;;1.00;0.73;;;;;;;-143.84;81.87;45121.44;5090417;28;21006;-58
2023/09/27 01:11:05;;;;;;;0.80;0.50;;;;;;;-143.84;82.20;45096.66;5090487;28;20436;-58
2023/09/27 01:13:32;;;;;;;0.90;0.60;;;;;;;-143.84;81.81;45100.47;5090228;28;20432;-58
2023/09/27 01:15:59;;;;;;;1.23;0.70;;;;;;;-143.84;82.46;45115.72;5090139;28;20436;-58
2023/09/27 01:18:28;;;;;;;1.73;0.60;;;;;;;-143.84;82.07;45089.06;5090158;28;20480;-58
2023/09/27 01:20:55;;;;;;;0.80;0.50;;;;;;;-143.84;82.05;45108.09;5090382;28;20450;-58
2023/09/27 01:23:24;;;;;;;0.90;0.73;;;;;;;-143.84;82.48;45106.19;5089931;28;20509;-58
2023/09/27 01:25:59;;;;;;;1.10;1.00;;;;;;;-143.84;82.60;45100.47;5089844;28;20446;-58
2023/09/27 01:28:26;;;;;;;0.90;0.60;;;;;;;-143.84;82.87;45113.81;5090057;28;20514;-58
2023/09/27 01:30:53;;;;;;;1.10;0.70;;;;;;;-143.84;83.01;45104.28;5089467;28;20441;-58
2023/09/27 01:33:20;;;;;;;0.90;0.70;;;;;;;-143.84;83.50;45140.47;5089784;28;20505;-58
2023/09/27 01:35:47;;;;;;;0.80;0.57;;;;;;;-143.84;83.66;45125.22;5089836;28;20502;-58
2023/09/27 01:38:15;;;;;;;0.90;0.63;;;;;;;-143.84;83.76;45132.84;5089700;28;20450;-58
2023/09/27 01:40:44;;;;;;;1.00;0.70;;;;;;;-143.84;84.17;45119.53;5089758;28;20859;-58
2023/09/27 01:43:12;;;;;;;1.07;0.60;;;;;;;-143.84;84.14;45111.91;5089713;28;20447;-58
2023/09/27 01:45:39;;;;;;;0.90;0.50;;;;;;;-143.84;84.11;45117.63;5089674;28;20445;-58
2023/09/27 01:48:07;;;;;;;1.10;0.97;;;;;;;-143.84;84.56;45119.53;5089734;28;20862;-58
2023/09/27 01:50:36;;;;;;;1.00;0.80;;;;;;;-143.84;84.65;45125.22;5089664;28;20436;-58
2023/09/27 01:53:04;;;;;;;0.93;0.80;;;;;;;-143.84;85.29;45115.72;5089850;28;20447;-58
2023/09/27 01:55:31;;;;;;;0.90;0.50;;;;;;;-143.84;85.78;45111.91;5089470;28;20542;-58
2023/09/27 01:58:00;;;;;;;0.80;0.50;;;;;;;-143.84;86.07;45125.22;5089381;28;20519;-58
2023/09/27 02:00:27;;;;;;;0.90;0.60;;;;;;;-143.84;85.97;45127.13;5089330;28;20444;-58
2023/09/27 02:02:56;;;;;;;1.33;0.80;;;;;;;-143.84;86.31;45108.09;5089395;28;21078;-58
2023/09/27 02:05:24;;;;;;;0.90;0.70;;;;;;;-143.84;86.54;45098.56;5089127;28;20948;-58
2023/09/27 02:07:51;;;;;;;0.80;0.50;;;;;;;-143.84;86.82;45132.84;5089367;28;20989;-58
2023/09/27 02:10:18;;;;;;;0.90;0.67;;;;;;;-143.84;87.05;45146.19;5089044;28;20447;-58
2023/09/27 02:12:46;;;;;;;0.87;0.57;;;;;;;-143.84;87.19;45102.38;5089035;28;20444;-58
2023/09/27 02:15:16;;;;;;;1.10;0.80;;;;;;;-143.84;87.25;45106.19;5087987;28;20436;-58
2023/09/27 02:17:43;;;;;;;0.90;0.80;;;;;;;-143.84;87.19;45129.03;5087998;28;20463;-58
2023/09/27 02:20:12;;;;;;;1.10;0.97;;;;;;;-143.84;87.25;45115.72;5088221;28;20616;-58
2023/09/27 02:22:41;;;;;;;0.80;0.50;;;;;;;-143.84;87.49;45136.66;5088247;28;20542;-58
2023/09/27 02:25:10;;;;;;;0.90;0.60;;;;;;;-143.84;87.42;45108.09;5088233;28;20994;-58
2023/09/27 02:27:38;;;;;;;1.00;0.70;;;;;;;-143.84;88.15;45094.78;5087946;28;21085;-58
2023/09/27 02:30:07;;;;;;;0.90;0.70;;;;;;;-143.84;88.09;45096.66;5088504;28;20435;-58
2023/09/27 02:32:36;;;;;;;1.20;0.70;;;;;;;-143.84;88.21;45130.94;5088182;28;20804;-58
2023/09/27 02:35:04;;;;;;;1.03;0.93;;;;;;;-143.84;88.17;45106.19;5088998;28;20486;-58
2023/09/27 02:37:32;;;;;;;1.00;0.60;;;;;;;-143.84;88.25;45106.19;5088681;28;20448;-58
2023/09/27 02:39:59;;;;;;;0.93;0.63;;;;;;;-143.84;88.22;45113.81;5088718;28;20475;-58
2023/09/27 02:42:26;;;;;;;0.90;0.80;;;;;;;-143.84;88.31;45110.00;5088111;28;20475;-58
2023/09/27 02:44:53;;;;;;;0.90;0.77;;;;;;;-143.84;88.62;45106.19;5088664;28;20436;-58
2023/09/27 02:47:20;;;;;;;1.20;0.80;;;;;;;-143.84;88.42;45115.72;5088630;28;20483;-58
2023/09/27 02:49:49;;;;;;;0.80;0.50;;;;;;;-143.84;88.68;45087.16;5088526;28;20942;-58
2023/09/27 02:52:16;;;;;;;1.40;1.17;;;;;;;-143.84;88.58;45117.63;5089014;28;20448;-58
2023/09/27 02:54:45;;;;;;;0.90;0.60;;;;;;;-143.84;88.59;45113.81;5088451;28;20443;-58
2023/09/27 02:57:13;;;;;;;1.00;0.90;;;;;;;-143.84;88.63;45121.44;5088730;28;20477;-58
2023/09/27 02:59:40;;;;;;;0.80;0.60;;;;;;;-143.84;88.58;45110.00;5088708;28;20472;-58
2023/09/27 03:02:08;;;;;;;1.67;1.03;;;;;;;-143.84;88.69;45148.09;5088425;28;21269;-58
2023/09/27 03:04:35;;;;;;;1.20;1.10;;;;;;;-143.84;88.67;45117.63;5088570;28;20527;-58
2023/09/27 03:07:08;;;;;;;0.90;0.70;;;;;;;-143.84;88.94;45104.28;5088479;28;20564;-58
2023/09/27 03:09:36;;;;;;;1.10;0.97;;;;;;;-143.84;89.33;45106.19;5088350;28;20462;-58
2023/09/27 03:12:03;;;;;;;0.87;0.70;;;;;;;-143.84;89.05;45110.00;5088827;28;20432;-58
2023/09/27 03:14:30;;;;;;;0.80;0.50;;;;;;;-143.84;89.24;45108.09;5088540;28;20506;-58
2023/09/27 03:16:58;;;;;;;1.00;0.70;;;;;;;-143.84;89.32;45132.84;5088311;28;20450;-58
2023/09/27 03:19:26;;;;;;;0.90;0.60;;;;;;;-143.84;89.32;45102.38;5088349;28;20476;-58
2023/09/27 03:21:53;;;;;;;1.00;0.90;;;;;;;-143.84;89.21;45121.44;5072229;28;20453;-57
2023/09/27 03:24:21;;;;;;;1.20;1.10;;;;;;;-143.84;89.30;45094.78;5067982;28;20437;-57
2023/09/27 03:26:49;;;;;;;1.30;1.00;;;;;;;-143.84;89.66;45110.00;5068157;28;20558;-57
2023/09/27 03:29:16;;;;;;;1.10;0.90;;;;;;;-143.84;89.67;45130.94;5067972;28;20502;-57
2023/09/27 03:31:44;;;;;;;1.27;1.03;;;;;;;-143.84;89.87;45119.53;5068097;28;20954;-57
2023/09/27 03:34:11;;;;;;;0.90;0.70;;;;;;;-143.84;89.92;45130.94;5068195;28;21403;-57
2023/09/27 03:36:38;;;;;;;1.73;0.80;;;;;;;-143.84;90.02;45092.88;5067535;28;20447;-57
2023/09/27 03:39:06;;;;;;;1.10;0.70;;;;;;;-143.84;90.14;45142.38;5086508;28;21302;-58
2023/09/27 03:41:34;;;;;;;1.20;0.93;;;;;;;-143.84;90.48;45136.66;5087933;28;20443;-57
2023/09/27 03:44:02;;;;;;;1.10;0.90;;;;;;;-143.84;90.50;45123.34;5087850;28;20513;-57
2023/09/27 03:46:30;;;;;;;1.00;0.70;;;;;;;-143.84;90.75;45100.47;5087852;28;20447;-57
2023/09/27 03:48:57;;;;;;;0.90;0.80;;;;;;;-143.84;90.85;45123.34;5087719;28;20546;-57
2023/09/27 03:51:25;;;;;;;1.10;0.67;;;;;;;-143.84;91.11;45130.94;5083073;28;20852;-57
2023/09/27 03:53:52;;;;;;;1.00;0.60;;;;;;;-143.84;91.06;45113.81;5089331;28;20439;-58
2023/09/27 03:56:19;;;;;;;0.90;0.77;;;;;;;-143.84;91.25;45150.00;5090827;28;20446;-58
2023/09/27 03:58:48;;;;;;;1.13;1.03;;;;;;;-143.84;91.66;45117.63;5091674;28;20446;-58
2023/09/27 04:01:15;;;;;;;1.33;1.13;;;;;;;-143.84;91.49;45121.44;5091811;28;20500;-58
2023/09/27 04:03:43;;;;;;;0.90;0.73;;;;;;;-143.84;91.66;45121.44;5091604;28;20443;-58
2023/09/27 04:06:10;;;;;;;0.80;0.50;;;;;;;-143.84;91.82;45138.56;5091791;28;20950;-58
2023/09/27 04:08:37;;;;;;;1.10;0.80;;;;;;;-143.84;92.27;45111.91;5091654;28;20471;-58
2023/09/27 04:11:06;;;;;;;0.90;0.50;;;;;;;-143.84;92.34;45115.72;5091473;28;20435;-58
2023/09/27 04:13:33;;;;;;;1.60;1.00;;;;;;;-143.84;92.52;45121.44;5091380;28;20527;-58
2023/09/27 04:16:03;;;;;;;0.90;0.70;;;;;;;-143.84;92.94;45123.34;5091586;28;20984;-58
2023/09/27 04:18:31;;;;;;;1.37;1.27;;;;;;;-143.84;93.26;45136.66;5091000;28;20479;-58
2023/09/27 04:21:06;;;;;;;0.90;0.60;;;;;;;-143.84;93.28;45123.34;5089021;28;20460;-58
2023/09/27 04:23:34;;;;;;;1.30;0.83;;;;;;;-143.84;93.08;45117.63;5090766;28;20450;-58
2023/09/27 04:26:04;;;;;;;0.80;0.53;;;;;;;-143.84;93.06;45144.28;5091091;28;20562;-58
2023/09/27 04:28:31;;;;;;;1.20;1.00;;;;;;;-143.84;92.94;45113.81;5091068;28;20616;-58
2023/09/27 04:30:59;;;;;;;0.93;0.80;;;;;;;-143.84;93.21;45132.84;5091010;28;20436;-58
2023/09/27 04:33:27;;;;;;;0.90;0.60;;;;;;;-143.84;93.21;45121.44;5091088;28;20515;-58
2023/09/27 04:35:54;;;;;;;0.90;0.60;;;;;;;-143.84;93.04;45115.72;5090969;28;20509;-58
2023/09/27 04:38:21;;;;;;;1.10;0.90;;;;;;;-143.84;92.89;45125.22;5091131;28;20432;-58
2023/09/27 04:40:49;;;;;;;1.10;1.00;;;;;;;-143.84;93.03;45108.09;5091272;28;20436;-58
2023/09/27 04:43:16;;;;;;;0.90;0.73;;;;;;;-143.84;93.17;45090.97;5090800;28;20429;-58
2023/09/27 04:45:43;;;;;;;1.00;0.70;;;;;;;-143.84;93.25;45110.00;5090739;28;20436;-58
2023/09/27 04:48:10;;;;;;;0.90;0.73;;;;;;;-143.84;93.57;45127.13;5090668;28;20510;-58
2023/09/27 04:50:39;;;;;;;0.90;0.80;;;;;;;-143.84;93.39;45129.03;5090575;28;20922;-58
2023/09/27 04:53:06;;;;;;;0.90;0.70;;;;;;;-143.84;93.45;45110.00;5090600;28;20436;-58
2023/09/27 04:55:34;;;;;;;0.93;0.80;;;;;;;-143.84;93.27;45108.09;5090706;28;21022;-58
2023/09/27 04:58:03;;;;;;;1.00;0.87;;;;;;;-143.84;93.20;45117.63;5090508;28;20452;-58
2023/09/27 05:00:30;;;;;;;1.03;0.93;;;;;;;-143.84;92.97;45098.56;5090467;28;20440;-58
2023/09/27 05:02:58;;;;;;;1.13;0.90;;;;;;;-143.84;92.63;45113.81;5090472;28;20497;-58
2023/09/27 05:05:25;;;;;;;1.60;0.90;;;;;;;-143.84;92.56;45104.28;5089540;28;20755;-58
2023/09/27 05:07:53;;;;;;;1.40;1.17;;;;;;;-143.84;91.82;45096.66;5090360;28;20548;-58
2023/09/27 05:10:20;;;;;;;0.97;0.67;;;;;;;-143.84;91.49;45090.97;5090323;28;20444;-58
2023/09/27 05:12:48;;;;;;;1.30;0.90;;;;;;;-143.84;91.10;45108.09;5090387;28;20560;-58
2023/09/27 05:15:16;;;;;;;1.20;1.10;;;;;;;-143.84;90.72;45106.19;5090297;28;20432;-58
2023/09/27 05:17:43;;;;;;;1.07;0.97;;;;;;;-143.84;89.90;45079.53;5090242;28;20460;-58
2023/09/27 05:20:11;;;;;;;0.90;0.60;;;;;;;-143.84;89.09;45098.56;5089787;28;20502;-57
2023/09/27 05:22:38;;;;;;;1.00;0.90;;;;;;;-143.84;88.49;45094.78;5090361;28;20788;-58
2023/09/27 05:25:08;;;;;;;1.87;1.60;;;;;;;-143.84;88.03;45108.09;5090023;28;20436;-58
2023/09/27 05:27:35;;;;;;;1.00;0.87;;;;;;;-143.84;87.96;45090.97;5090221;28;21427;-58
2023/09/27 05:30:03;;;;;;;1.10;0.70;;;;;;;-143.84;88.02;45073.81;5090557;28;20432;-58
2023/09/27 05:32:30;;;;;;;0.90;0.63;;;;;;;-143.84;87.09;45087.16;5089774;28;20960;-58
2023/09/27 05:34:58;;;;;;;0.97;0.80;;;;;;;-143.84;85.95;45087.16;5089976;28;20921;-58
2023/09/27 05:37:25;;;;;;;0.90;0.67;;;;;;;-143.84;85.14;45085.25;5089854;28;20458;-58
2023/09/27 05:39:52;;;;;;;0.90;0.60;;;;;;;-143.84;84.60;45094.78;5089780;28;20444;-58
2023/09/27 05:42:21;;;;;;;1.23;1.03;;;;;;;-143.84;83.86;45102.38;5089614;28;20473;-58
2023/09/27 05:44:48;;;;;;;0.90;0.60;;;;;;;-143.84;83.01;45090.97;5089756;28;20933;-58
2023/09/27 05:47:15;;;;;;;1.47;0.73;;;;;;;-143.84;81.96;45108.09;5089813;28;20440;-58
2023/09/27 05:49:43;;;;;;;0.93;0.70;;;;;;;-143.84;81.11;45058.59;5089524;28;20652;-58
2023/09/27 05:52:12;;;;;;;1.20;1.10;;;;;;;-143.84;80.39;45073.81;5089480;28;21000;-58
2023/09/27 05:54:40;;;;;;;1.23;0.90;;;;;;;-143.84;79.15;45092.88;5089411;28;20451;-58
2023/09/27 05:57:07;;;;;;;0.90;0.60;;;;;;;-143.84;79.23;45049.06;5089548;28;20439;-58
2023/09/27 05:59:36;;;;;;;1.10;0.80;;;;;;;-143.84;78.82;45070.00;5089481;28;20474;-58
2023/09/27 06:02:03;;;;;;;1.00;0.73;;;;;;;-143.84;77.73;45071.91;5089217;28;20587;-58
2023/09/27 06:04:30;;;;;;;2.20;0.70;;;;;;;-143.84;76.98;45068.13;5089467;28;20479;-58
2023/09/27 06:06:58;;;;;;;1.00;0.60;;;;;;;-143.84;76.15;45081.44;5089566;28;20462;-58
2023/09/27 06:09:25;;;;;;;0.90;0.50;;;;;;;-143.84;75.48;45079.53;5089126;28;20472;-58
2023/09/27 06:11:52;;;;;;;1.97;0.90;;;;;;;-143.84;74.44;45066.22;5089268;28;20435;-58
2023/09/27 06:14:21;;;;;;;1.10;1.00;;;;;;;-143.84;72.80;45081.44;5089519;28;20498;-58
2023/09/27 06:16:50;;;;;;;1.93;1.27;;;;;;;-143.84;72.33;45056.69;5088018;28;20448;-58
2023/09/27 06:19:17;;;;;;;0.90;0.60;;;;;;;-143.84;71.77;45073.81;5089017;28;20491;-58
2023/09/27 06:21:45;;;;;;;1.00;0.70;;;;;;;-143.84;72.19;45058.59;5089185;28;20462;-58
2023/09/27 06:24:12;;;;;;;1.63;1.10;;;;;;;-143.84;71.34;45079.53;5089090;28;20431;-58
2023/09/27 06:26:41;;;;;;;1.10;0.97;;;;;;;-143.84;71.03;45041.44;5088838;28;20448;-58
2023/09/27 06:29:09;;;;;;;2.00;0.73;;;;;;;-143.84;70.67;45058.59;5089148;28;20478;-58
2023/09/27 06:31:36;;;;;;;1.03;0.77;;;;;;;-143.84;70.88;45068.13;5089113;28;20436;-58
2023/09/27 06:34:05;;;;;;;1.00;0.80;;;;;;;-143.84;71.03;45066.22;5088972;28;20853;-58
2023/09/27 06:36:34;;;;;;;0.90;0.60;;;;;;;-143.84;70.03;45054.78;5089113;28;20432;-58
2023/09/27 06:39:01;;;;;;;1.40;1.00;;;;;;;-143.84;69.23;45049.06;5088783;28;20443;-58
2023/09/27 06:41:29;;;;;;;1.20;1.03;;;;;;;-143.84;68.74;45043.34;5088734;28;20594;-58
2023/09/27 06:43:56;;;;;;;1.20;0.77;;;;;;;-143.84;68.46;45043.34;5088935;28;20444;-58
2023/09/27 06:46:23;;;;;;;1.17;0.93;;;;;;;-143.84;68.24;45045.25;5088494;28;20440;-58
2023/09/27 06:48:50;;;;;;;3.50;1.23;;;;;;;-143.84;67.75;45037.66;5088716;28;20472;-58
2023/09/27 06:51:19;;;;;;;1.10;0.93;;;;;;;-143.84;66.36;45054.78;5088767;28;21301;-58
2023/09/27 06:53:46;;;;;;;1.83;0.77;;;;;;;-143.84;65.05;45028.13;5088441;28;20448;-58
2023/09/27 06:56:13;;;;;;;1.20;0.80;;;;;;;-143.84;63.60;45033.84;5088424;28;20489;-58
2023/09/27 06:58:40;;;;;;;0.97;0.73;;;;;;;-143.84;64.00;45014.78;5088269;28;20444;-58
2023/09/27 07:01:07;;;;;;;1.13;1.03;;;;;;;-143.84;61.92;45031.94;5088331;28;20823;-58
2023/09/27 07:03:36;;;;;;;0.90;0.70;;;;;;;-143.84;61.75;45005.28;5088190;28;21320;-58
2023/09/27 07:06:05;;;;;;;3.23;2.93;;;;;;;-143.84;59.48;44999.56;5088267;28;20455;-58
2023/09/27 07:08:34;;;;;;;1.20;1.10;;;;;;;-143.84;58.59;45026.22;5088337;28;20997;-58
2023/09/27 07:11:05;;;;;;;0.90;0.60;;;;;;;-143.84;56.55;45020.50;5088607;28;20517;-58
2023/09/27 07:13:32;;;;;;;1.10;0.70;;;;;;;-143.84;56.73;45035.75;5088491;28;21027;-58
2023/09/27 07:16:00;;;;;;;1.17;1.07;;;;;;;-143.84;55.59;45030.03;5088363;28;20938;-58
2023/09/27 07:18:27;;;;;;;0.90;0.57;;;;;;;-143.84;53.06;45014.78;5088357;28;20578;-58
2023/09/27 07:20:55;;;;;;;0.80;0.50;;;;;;;-143.84;51.92;45010.97;5088273;28;20567;-58
2023/09/27 07:23:23;;;;;;;0.90;0.70;;;;;;;-143.84;52.61;45018.59;5088648;28;20443;-58
2023/09/27 07:25:52;;;;;;;0.90;0.50;;;;;;;-143.84;50.98;45005.28;5088346;28;20447;-58
2023/09/27 07:28:19;;;;;;;1.00;0.90;;;;;;;-143.84;49.58;45014.78;5088923;28;20506;-58
2023/09/27 07:30:47;;;;;;;1.20;0.73;;;;;;;-143.84;48.29;45003.38;5092572;28;20531;-58
2023/09/27 07:33:17;;;;;;;0.90;0.60;;;;;;;-143.84;47.56;45014.78;5092293;28;20436;-58
2023/09/27 07:35:45;;;;;;;1.40;0.80;;;;;;;-143.84;47.72;44995.75;5092380;28;20446;-58
2023/09/27 07:38:12;;;;;;;1.20;0.60;;;;;;;-143.84;46.28;44993.84;5092144;28;20509;-58
2023/09/27 07:40:39;;;;;;;0.90;0.60;;;;;;;-143.84;46.06;44991.94;5092115;28;20448;-58
2023/09/27 07:43:08;;;;;;;0.90;0.50;;;;;;;-143.84;44.97;44976.72;5092115;28;20428;-58
2023/09/27 07:45:39;;;;;;;0.90;0.67;;;;;;;-143.84;44.36;44997.66;5092178;28;20440;-58
2023/09/27 07:48:07;;;;;;;0.90;0.80;;;;;;;-143.84;43.26;44957.66;5092166;28;20470;-58
2023/09/27 07:50:37;;;;;;;0.97;0.70;;;;;;;-143.84;42.52;44944.34;5091873;28;20438;-58
2023/09/27 07:53:06;;;;;;;1.10;0.60;;;;;;;-143.84;42.59;44978.63;5091514;28;20450;-58
2023/09/27 07:55:33;;;;;;;2.03;0.60;;;;;;;-143.84;42.98;44984.31;5091799;28;20435;-58
2023/09/27 07:58:03;;;;;;;0.90;0.50;;;;;;;-143.84;42.54;44991.94;5091688;28;20807;-58
2023/09/27 08:00:33;;;;;;;0.90;0.73;;;;;;;-143.84;42.39;44978.63;5091901;28;20526;-58
2023/09/27 08:03:00;;;;;;;1.47;0.70;;;;;;;-143.84;42.76;44972.91;5091888;28;20455;-58
2023/09/27 08:05:27;;;;;;;2.50;0.80;;;;;;;-143.84;42.30;44971.00;5091950;28;21322;-58
2023/09/27 08:07:55;;;;;;;0.90;0.63;;;;;;;-143.84;41.64;44965.28;5091604;28;21187;-58
2023/09/27 08:10:22;;;;;;;2.17;0.60;;;;;;;-143.84;41.01;44984.31;5091604;28;20476;-58
2023/09/27 08:12:50;;;;;;;0.87;0.53;;;;;;;-143.84;41.26;44988.13;5091382;28;20504;-58
2023/09/27 08:15:18;;;;;;;1.20;0.70;;;;;;;-143.84;41.42;44988.13;5091446;28;20444;-58
2023/09/27 08:17:47;;;;;;;0.90;0.50;;;;;;;-143.84;41.56;44961.47;5091622;28;20538;-58
2023/09/27 08:20:14;;;;;;;1.10;0.70;;;;;;;-143.84;41.03;44955.75;5091096;28;20487;-58
2023/09/27 08:22:41;;;;;;;1.00;0.80;;;;;;;-143.84;41.03;44929.09;5091255;28;21142;-58
2023/09/27 08:25:14;;;;;;;0.97;0.60;;;;;;;-143.84;40.31;44957.66;5091201;28;20436;-58
2023/09/27 08:27:42;;;;;;;0.80;0.47;;;;;;;-143.84;40.41;44931.00;5090941;28;20466;-58
2023/09/27 08:30:11;;;;;;;1.20;0.83;;;;;;;-143.84;39.63;44957.66;5091320;28;21002;-58
2023/09/27 08:32:40;;;;;;;1.83;0.63;;;;;;;-143.84;39.84;44940.53;5091533;28;20537;-58
2023/09/27 08:35:10;;;;;;;2.27;1.00;;;;;;;-143.84;39.24;44963.38;5091051;28;20937;-58
2023/09/27 08:37:37;;;;;;;0.80;0.50;;;;;;;-143.84;39.76;44929.09;5091008;28;20972;-58
2023/09/27 08:40:05;;;;;;;1.00;0.83;;;;;;;-143.84;38.75;44936.72;5090007;28;20445;-58
2023/09/27 08:42:34;;;;;;;1.10;0.70;;;;;;;-143.84;38.36;44946.25;5091225;28;20450;-58
2023/09/27 08:45:02;;;;;;;0.90;0.77;;;;;;;-143.84;38.25;44963.38;5091178;28;20438;-58
2023/09/27 08:47:31;;;;;;;1.07;0.73;;;;;;;-143.84;38.66;44955.75;5090648;28;20527;-58
2023/09/27 08:49:59;;;;;;;1.13;0.60;;;;;;;-143.84;39.12;44944.34;5090926;28;20511;-58
2023/09/27 08:52:28;;;;;;;1.30;0.70;;;;;;;-143.84;38.54;44948.16;5090781;28;21297;-58
2023/09/27 08:54:56;;;;;;;0.93;0.70;;;;;;;-143.84;38.27;44931.00;5090621;28;20523;-58
2023/09/27 08:57:26;;;;;;;1.00;0.77;;;;;;;-143.84;39.14;44972.91;5090366;28;21048;-58
2023/09/27 08:59:53;;;;;;;2.33;0.93;;;;;;;-143.84;38.54;44942.44;5090904;28;20494;-58
2023/09/27 09:02:23;;;;;;;0.90;0.60;;;;;;;-143.84;39.08;44961.47;5090574;28;20493;-58
2023/09/27 09:04:52;;;;;;;0.90;0.63;;;;;;;-143.84;39.95;44967.19;5090527;28;20458;-58
2023/09/27 09:07:19;;;;;;;1.10;0.87;;;;;;;-143.84;40.26;44976.72;5090382;28;20489;-58
2023/09/27 09:09:48;;;;;;;1.80;0.83;;;;;;;-143.84;39.88;44974.81;5090157;28;20483;-58
2023/09/27 09:12:15;;;;;;;0.90;0.50;;;;;;;-143.84;40.06;44961.47;5090188;28;20452;-58
2023/09/27 09:14:45;;;;;;;0.90;0.67;;;;;;;-143.84;38.81;44978.63;5090359;28;20440;-58
2023/09/27 09:17:17;;;;;;;1.00;0.70;;;;;;;-143.84;38.75;44931.00;5090312;28;20444;-58
2023/09/27 09:19:45;;;;;;;1.20;0.70;;;;;;;-143.84;38.75;44955.75;5089994;28;20491;-58
2023/09/27 09:22:12;;;;;;;1.13;0.53;;;;;;;-143.84;38.13;44953.88;5090159;28;20819;-58
2023/09/27 09:24:41;;;;;;;1.10;1.00;;;;;;;-143.84;38.89;44959.56;5090183;28;20444;-58
2023/09/27 09:27:12;;;;;;;1.07;0.70;;;;;;;-143.84;38.83;44969.09;5090015;28;20439;-58
2023/09/27 09:29:46;;;;;;;0.90;0.60;;;;;;;-143.84;38.95;44953.88;5089961;28;20476;-58
2023/09/27 09:32:15;;;;;;;0.90;0.57;;;;;;;-143.84;39.60;44927.19;5090028;28;20930;-58
2023/09/27 09:34:43;;;;;;;0.90;0.50;;;;;;;-143.84;39.60;44940.53;5089922;28;20440;-58
2023/09/27 09:37:17;;;;;;;1.00;0.70;;;;;;;-143.84;39.50;44965.28;5089889;28;20439;-58
2023/09/27 09:39:46;;;;;;;0.90;0.60;;;;;;;-143.84;38.86;44950.06;5089829;28;20443;-58
2023/09/27 09:42:16;;;;;;;1.53;0.60;;;;;;;-143.84;39.03;44948.16;5089922;28;20526;-58
2023/09/27 09:44:43;;;;;;;0.90;0.60;;;;;;;-143.84;38.86;44959.56;5089593;28;20447;-59
2023/09/27 09:47:12;;;;;;;0.90;0.63;;;;;;;-143.84;38.95;44969.09;5089516;28;20509;-58
2023/09/27 09:49:41;;;;;;;0.90;0.60;;;;;;;-143.84;39.77;44959.56;5089811;28;20524;-58
2023/09/27 09:52:13;;;;;;;0.90;0.60;;;;;;;-143.84;38.92;44969.09;5089277;28;20476;-58
2023/09/27 09:54:46;;;;;;;3.93;0.80;;;;;;;-143.84;39.42;44959.56;5089511;28;20436;-58
2023/09/27 09:57:19;;;;;;;1.00;0.60;;;;;;;-143.84;39.79;44953.88;5089597;28;20448;-58
2023/09/27 10:00:11;;;;;;;0.90;0.60;;;;;;;-143.84;38.58;44967.19;5089661;28;20501;-58
2023/09/27 10:02:47;;;;;;;0.90;0.60;;;;;;;-143.84;38.44;44963.38;5089298;28;20443;-58
2023/09/27 10:05:15;;;;;;;0.90;0.50;;;;;;;-143.84;38.91;44953.88;5089323;28;20518;-58
2023/09/27 10:07:44;;;;;;;0.90;0.60;;;;;;;-143.84;38.94;44976.72;5089658;28;20428;-58
2023/09/27 10:10:12;;;;;;;0.90;0.47;;;;;;;-143.84;37.80;44957.66;5089388;28;20476;-58
2023/09/27 10:12:41;;;;;;;0.90;0.80;;;;;;;-143.84;37.79;44948.16;5089504;28;20432;-58
2023/09/27 10:15:10;;;;;;;1.53;0.73;;;;;;;-143.84;37.52;44978.63;5089211;28;20439;-58
2023/09/27 10:17:37;;;;;;;0.90;0.40;;;;;;;-143.84;38.04;44938.63;5089162;28;20448;-57
2023/09/27 10:20:13;;;;;;;0.90;0.70;;;;;;;-143.84;37.58;44961.47;5088977;28;20541;-58
2023/09/27 10:22:41;;;;;;;0.87;0.43;;;;;;;-143.84;37.92;44934.81;5089130;28;20436;-58
2023/09/27 10:25:34;;;;;;;1.00;0.80;;;;;;;-143.84;38.37;44950.06;5089248;28;20884;-58
2023/09/27 10:28:13;;;;;;;0.80;0.40;;;;;;;-143.84;37.98;44965.28;5089148;28;20523;-58
2023/09/27 10:31:09;;;;;;;1.00;0.70;;;;;;;-143.84;37.84;44959.56;5088905;28;20494;-58
2023/09/27 10:33:39;;;;;;;0.90;0.60;;;;;;;-143.84;38.61;44961.47;5088918;28;20525;-58
2023/09/27 10:36:29;;;;;;;1.00;0.53;;;;;;;-143.84;39.41;44946.25;5088846;28;20446;-58
2023/09/27 10:39:05;;;;;;;0.90;0.70;;;;;;;-143.84;40.26;44959.56;5088755;28;20501;-58
2023/09/27 10:41:46;;;;;;;1.10;1.00;;;;;;;-143.84;40.11;44934.81;5089010;28;20440;-57
2023/09/27 10:44:28;;;;;;;1.63;0.97;;;;;;;-143.84;40.13;44953.88;5088863;28;20451;-57
2023/09/27 10:46:56;;;;;;;0.90;0.57;;;;;;;-143.84;39.89;44957.66;5088866;28;20442;-57
2023/09/27 10:49:25;;;;;;;1.00;0.70;;;;;;;-143.84;40.17;44955.75;5088890;28;20903;-57
2023/09/27 10:51:53;;;;;;;0.90;0.53;;;;;;;-143.84;41.02;44957.66;5088520;28;20952;-57
2023/09/27 10:54:24;;;;;;;0.90;0.60;;;;;;;-143.84;40.20;44934.81;5088875;28;20516;-58
2023/09/27 10:56:55;;;;;;;1.10;0.60;;;;;;;-143.84;40.57;44961.47;5088617;28;20431;-57
2023/09/27 10:59:27;;;;;;;0.90;0.50;;;;;;;-143.84;39.74;44961.47;5088677;28;20959;-57
2023/09/27 11:01:55;;;;;;;0.90;0.60;;;;;;;-143.84;40.16;44953.88;5088765;28;20845;-57
2023/09/27 11:04:23;;;;;;;0.80;0.40;;;;;;;-143.84;40.25;44972.91;5091206;28;20530;-57
2023/09/27 11:06:50;;;;;;;0.80;0.40;;;;;;;-143.84;40.55;44967.19;5092715;28;20444;-58
2023/09/27 11:09:19;;;;;;;0.90;0.50;;;;;;;-143.84;40.85;44955.75;5092603;28;20479;-58
2023/09/27 11:11:48;;;;;;;0.97;0.57;;;;;;;-143.84;41.03;44984.31;5092537;28;20458;-57
2023/09/27 11:14:31;;;;;;;1.67;0.77;;;;;;;-143.84;41.42;44971.00;5092615;28;20450;-57
2023/09/27 11:17:14;;;;;;;0.90;0.60;;;;;;;-143.84;40.62;44959.56;5092492;28;20485;-57
2023/09/27 11:19:42;;;;;;;0.90;0.53;;;;;;;-143.84;40.68;44972.91;5092905;28;20570;-57
2023/09/27 11:22:09;;;;;;;1.03;0.60;;;;;;;-143.84;40.77;44971.00;5092695;28;20443;-57
2023/09/27 11:24:40;;;;;;;1.00;0.60;;;;;;;-143.84;41.03;44972.91;5092514;28;20529;-57